Time;durP1;ratioP1;P1;durP2;ratioP2;P2;SDS_P1;SDS_P2;PMS_P1;PMS_P2;Temp;Humidity;BMP_temperature;BMP_pressure;BME280_temperature;BME280_humidity;BME280_pressure;Samples;Min_cycle;Max_cycle;Signal;HPM_P1;HPM_P2
2023/05/10 05:28:37;;;;;;;;;4.50;4.00;;;;;;;;5082147;27;13531;-68
2023/05/10 05:31:03;;;;;;;;;5.00;5.00;;;;;;;;5085173;28;11466;-70
2023/05/10 05:33:28;;;;;;;;;6.00;5.00;;;;;;;;5084948;28;11077;-72
2023/05/10 05:35:53;;;;;;;;;5.00;2.50;;;;;;;;5085179;28;8884;-69
2023/05/10 05:38:18;;;;;;;;;2.00;2.00;;;;;;;;5085180;28;8809;-70
2023/05/10 05:40:46;;;;;;;;;2.00;2.00;;;;;;;;5086512;28;8910;-72
2023/05/10 05:43:11;;;;;;;;;5.00;4.75;;;;;;;;5084873;28;8794;-69
2023/05/10 05:45:37;;;;;;;;;5.00;3.00;;;;;;;;5084770;28;10802;-70
2023/05/10 05:48:02;;;;;;;;;2.00;2.00;;;;;;;;5073183;28;8868;-77
2023/05/10 05:50:27;;;;;;;;;6.00;5.00;;;;;;;;5070888;28;8820;-74
2023/05/10 05:52:53;;;;;;;;;3.00;3.00;;;;;;;;5064122;28;8952;-76
2023/05/10 05:55:18;;;;;;;;;6.50;5.25;;;;;;;;5063040;28;8836;-73
2023/05/10 05:57:43;;;;;;;;;3.50;3.00;;;;;;;;5063515;28;8828;-77
2023/05/10 06:00:09;;;;;;;;;6.75;5.00;;;;;;;;5065453;28;8796;-79
2023/05/10 06:02:34;;;;;;;;;6.00;6.00;;;;;;;;5065272;28;8821;-78
2023/05/10 06:05:00;;;;;;;;;7.75;6.50;;;;;;;;5065209;28;8970;-78
2023/05/10 06:07:25;;;;;;;;;7.00;6.50;;;;;;;;5065324;28;8906;-75
2023/05/10 06:09:51;;;;;;;;;8.00;6.25;;;;;;;;5065392;28;8816;-75
2023/05/10 06:12:16;;;;;;;;;11.75;7.75;;;;;;;;5064026;28;9590;-79
2023/05/10 06:14:42;;;;;;;;;7.50;6.00;;;;;;;;5065842;28;8789;-79
2023/05/10 06:17:07;;;;;;;;;6.25;6.25;;;;;;;;5069740;28;8818;-79
2023/05/10 06:19:33;;;;;;;;;8.00;7.75;;;;;;;;5086000;28;8806;-79
2023/05/10 06:21:58;;;;;;;;;5.75;5.25;;;;;;;;5085592;28;8811;-78
2023/05/10 06:24:23;;;;;;;;;6.00;4.00;;;;;;;;5085681;28;9545;-78
2023/05/10 06:26:49;;;;;;;;;6.75;6.75;;;;;;;;5091255;28;8797;-77
2023/05/10 06:29:15;;;;;;;;;6.50;6.50;;;;;;;;5105815;28;8798;-77
2023/05/10 06:31:40;;;;;;;;;6.25;6.25;;;;;;;;5100365;22;8878;-73
2023/05/10 06:34:07;;;;;;;;;6.00;6.00;;;;;;;;5065166;28;8932;-72
2023/05/10 06:36:33;;;;;;;;;8.00;7.25;;;;;;;;5065254;28;8826;-75
2023/05/10 06:38:58;;;;;;;;;7.25;5.25;;;;;;;;5056802;28;10918;-70
2023/05/10 06:41:23;;;;;;;;;7.50;6.75;;;;;;;;5051587;28;8806;-70
2023/05/10 06:43:48;;;;;;;;;7.00;7.00;;;;;;;;5051881;28;8798;-69
2023/05/10 06:46:14;;;;;;;;;8.00;7.00;;;;;;;;5051600;28;8806;-69
2023/05/10 06:48:39;;;;;;;;;8.50;8.00;;;;;;;;5033262;28;8813;-70
2023/05/10 06:51:04;;;;;;;;;6.00;6.00;;;;;;;;5051622;28;8955;-70
2023/05/10 06:53:29;;;;;;;;;7.75;6.75;;;;;;;;5051730;28;8875;-70
2023/05/10 06:55:55;;;;;;;;;9.25;7.75;;;;;;;;5051749;28;8798;-70
2023/05/10 06:58:20;;;;;;;;;9.00;8.00;;;;;;;;5051181;28;8806;-70
2023/05/10 07:00:46;;;;;;;;;6.00;6.00;;;;;;;;5051534;28;8817;-70
2023/05/10 07:03:12;;;;;;;;;9.00;8.25;;;;;;;;5051234;28;8818;-71
2023/05/10 07:05:37;;;;;;;;;7.25;7.25;;;;;;;;5051380;28;11084;-70
2023/05/10 07:08:02;;;;;;;;;11.75;9.00;;;;;;;;5051344;28;8830;-74
2023/05/10 07:10:28;;;;;;;;;12.25;9.00;;;;;;;;5051597;28;8809;-73
2023/05/10 07:12:53;;;;;;;;;8.75;8.75;;;;;;;;5051280;28;8889;-73
2023/05/10 07:15:18;;;;;;;;;11.00;8.25;;;;;;;;5051240;28;8794;-73
2023/05/10 07:17:44;;;;;;;;;11.00;9.50;;;;;;;;5050493;28;8810;-72
2023/05/10 07:20:09;;;;;;;;;10.00;8.25;;;;;;;;5051118;28;8809;-73
2023/05/10 07:22:34;;;;;;;;;9.00;9.00;;;;;;;;5050944;28;8902;-74
2023/05/10 07:25:00;;;;;;;;;11.00;9.00;;;;;;;;5051289;28;8766;-74
2023/05/10 07:27:25;;;;;;;;;21.00;17.00;;;;;;;;5051079;28;8936;-73
2023/05/10 07:29:50;;;;;;;;;12.75;11.00;;;;;;;;5051059;28;9003;-70
2023/05/10 07:32:16;;;;;;;;;15.00;12.00;;;;;;;;5050794;28;8830;-71
2023/05/10 07:34:42;;;;;;;;;13.50;12.00;;;;;;;;5033145;28;8833;-71
2023/05/10 07:37:07;;;;;;;;;14.00;14.00;;;;;;;;5050271;28;8840;-69
2023/05/10 07:39:32;;;;;;;;;17.00;13.50;;;;;;;;5050846;28;8779;-65
2023/05/10 07:41:58;;;;;;;;;8.00;7.00;;;;;;;;5050759;28;8914;-67
2023/05/10 07:44:23;;;;;;;;;14.50;13.50;;;;;;;;5050688;28;8783;-68
2023/05/10 07:46:49;;;;;;;;;13.75;13.25;;;;;;;;5032176;28;8935;-68
2023/05/10 07:49:14;;;;;;;;;16.75;14.00;;;;;;;;5050614;28;8798;-68
2023/05/10 07:51:39;;;;;;;;;13.25;11.50;;;;;;;;5031546;28;8814;-68
2023/05/10 07:54:05;;;;;;;;;17.00;12.25;;;;;;;;5032485;28;8802;-68
2023/05/10 07:56:31;;;;;;;;;16.25;12.25;;;;;;;;5049928;28;9058;-68
2023/05/10 07:58:57;;;;;;;;;10.75;10.75;;;;;;;;5050316;28;8817;-68
2023/05/10 08:01:23;;;;;;;;;11.25;10.00;;;;;;;;5049944;28;10892;-69
2023/05/10 08:03:48;;;;;;;;;9.50;9.50;;;;;;;;5049873;28;10913;-67
2023/05/10 08:06:17;;;;;;;;;11.67;8.67;;;;;;;;5050227;28;8810;-67
2023/05/10 08:08:42;;;;;;;;;12.50;10.50;;;;;;;;5050110;28;8790;-67
2023/05/10 08:11:07;;;;;;;;;11.25;10.00;;;;;;;;5049802;28;10985;-67
2023/05/10 08:13:33;;;;;;;;;13.00;11.00;;;;;;;;5049551;28;8790;-67
2023/05/10 08:15:58;;;;;;;;;11.75;11.00;;;;;;;;5050059;28;8921;-69
2023/05/10 08:18:24;;;;;;;;;9.00;7.75;;;;;;;;5049854;28;9040;-67
2023/05/10 08:20:49;;;;;;;;;11.50;8.75;;;;;;;;5031872;28;8821;-69
2023/05/10 08:23:14;;;;;;;;;10.00;8.50;;;;;;;;5049781;28;8948;-68
2023/05/10 08:25:39;;;;;;;;;7.00;7.00;;;;;;;;5050079;28;8790;-68
2023/05/10 08:28:05;;;;;;;;;8.00;7.25;;;;;;;;5049549;28;9544;-67
2023/05/10 08:30:31;;;;;;;;;7.25;7.00;;;;;;;;5049126;28;8798;-68
2023/05/10 08:32:56;;;;;;;;;7.75;6.75;;;;;;;;5049785;28;8922;-68
2023/05/10 08:35:21;;;;;;;;;8.00;6.00;;;;;;;;5049600;28;8814;-68
2023/05/10 08:37:46;;;;;;;;;8.25;8.00;;;;;;;;5049279;28;8826;-68
2023/05/10 08:40:12;;;;;;;;;7.50;7.50;;;;;;;;5031390;28;8806;-68
2023/05/10 08:42:40;;;;;;;;;7.00;7.00;;;;;;;;5049241;28;8824;-67
2023/05/10 08:45:06;;;;;;;;;7.75;7.50;;;;;;;;5049383;28;8948;-67
2023/05/10 08:47:32;;;;;;;;;9.00;7.00;;;;;;;;5048992;28;11355;-68
2023/05/10 08:49:59;;;;;;;;;8.50;7.00;;;;;;;;5049014;28;10486;-69
2023/05/10 08:52:26;;;;;;;;;7.00;7.00;;;;;;;;5049380;28;8775;-68
2023/05/10 08:54:51;;;;;;;;;5.75;4.50;;;;;;;;5049225;28;10655;-68
2023/05/10 08:57:17;;;;;;;;;6.25;5.00;;;;;;;;5048988;28;10533;-68
2023/05/10 08:59:42;;;;;;;;;3.50;3.00;;;;;;;;5049082;28;8830;-67
2023/05/10 09:02:10;;;;;;;;;7.25;5.00;;;;;;;;5048510;28;8779;-68
2023/05/10 09:04:35;;;;;;;;;6.00;4.00;;;;;;;;5048973;28;8786;-67
2023/05/10 09:07:01;;;;;;;;;4.50;4.50;;;;;;;;5048334;28;10343;-68
2023/05/10 09:09:27;;;;;;;;;6.00;4.00;;;;;;;;5048895;28;8806;-68
2023/05/10 09:11:53;;;;;;;;;6.00;6.00;;;;;;;;5048704;28;8905;-68
2023/05/10 09:14:18;;;;;;;;;6.00;6.00;;;;;;;;5048757;28;8786;-69
2023/05/10 09:16:44;;;;;;;;;12.25;8.75;;;;;;;;5048626;28;10359;-68
2023/05/10 09:19:09;;;;;;;;;8.00;6.00;;;;;;;;5048666;28;9553;-68
2023/05/10 09:21:40;;;;;;;;;7.00;7.00;;;;;;;;5048872;28;8961;-68
2023/05/10 09:24:06;;;;;;;;;6.00;4.50;;;;;;;;5048692;28;8806;-68
2023/05/10 09:26:32;;;;;;;;;4.00;3.25;;;;;;;;5030365;28;10388;-68
2023/05/10 09:28:58;;;;;;;;;4.00;4.00;;;;;;;;5048632;28;10335;-68
2023/05/10 09:31:25;;;;;;;;;9.50;6.75;;;;;;;;5049089;28;8782;-68
2023/05/10 09:33:51;;;;;;;;;2.00;2.00;;;;;;;;5048284;28;10689;-67
2023/05/10 09:36:16;;;;;;;;;32.75;31.25;;;;;;;;5048538;28;11098;-68
2023/05/10 09:38:46;;;;;;;;;3.00;3.00;;;;;;;;5048785;28;8883;-68
2023/05/10 09:41:24;;;;;;;;;1.00;1.00;;;;;;;;5048760;28;8798;-68
2023/05/10 09:43:54;;;;;;;;;3.75;3.25;;;;;;;;5048313;28;10176;-68
2023/05/10 09:46:20;;;;;;;;;6.75;5.50;;;;;;;;5048675;28;10445;-68
2023/05/10 09:48:46;;;;;;;;;3.00;2.00;;;;;;;;5048592;28;10345;-69
2023/05/10 09:51:18;;;;;;;;;2.00;2.00;;;;;;;;5048487;28;8794;-68
2023/05/10 09:53:44;;;;;;;;;7.25;5.50;;;;;;;;5048412;28;10283;-69
2023/05/10 09:56:09;;;;;;;;;0.75;0.00;;;;;;;;5048368;28;10551;-67
2023/05/10 09:58:36;;;;;;;;;2.75;2.75;;;;;;;;5048299;28;8802;-68
2023/05/10 10:01:02;;;;;;;;;1.00;1.00;;;;;;;;5030620;28;8900;-67
2023/05/10 10:03:29;;;;;;;;;3.00;2.00;;;;;;;;5048195;28;10180;-68
2023/05/10 10:05:55;;;;;;;;;5.50;3.00;;;;;;;;5048584;28;8933;-68
2023/05/10 10:08:21;;;;;;;;;6.25;2.75;;;;;;;;5048620;28;11209;-68
2023/05/10 10:10:46;;;;;;;;;8.00;5.00;;;;;;;;5030562;28;10431;-69
2023/05/10 10:13:12;;;;;;;;;6.75;6.75;;;;;;;;5048754;28;8794;-68
2023/05/10 10:15:37;;;;;;;;;1.00;1.00;;;;;;;;5051951;28;8802;-68
2023/05/10 10:18:06;;;;;;;;;4.00;3.00;;;;;;;;5051974;28;8949;-68
2023/05/10 10:20:31;;;;;;;;;2.00;1.00;;;;;;;;5052074;28;8798;-68
2023/05/10 10:22:56;;;;;;;;;0.00;0.00;;;;;;;;5052164;28;10915;-67
2023/05/10 10:25:22;;;;;;;;;2.00;1.00;;;;;;;;5052067;28;8798;-68
2023/05/10 10:27:47;;;;;;;;;0.00;0.00;;;;;;;;5052229;28;8810;-68
2023/05/10 10:30:30;;;;;;;;;0.00;0.00;;;;;;;;5051973;28;8775;-67
2023/05/10 10:32:58;;;;;;;;;1.00;1.00;;;;;;;;5052302;28;8807;-67
2023/05/10 10:35:23;;;;;;;;;1.00;1.00;;;;;;;;5051349;28;10335;-67
2023/05/10 10:37:50;;;;;;;;;4.00;2.50;;;;;;;;5051528;28;10251;-68
2023/05/10 10:40:32;;;;;;;;;3.75;3.75;;;;;;;;5051888;28;8829;-68
2023/05/10 10:42:58;;;;;;;;;7.00;6.00;;;;;;;;5051556;28;10604;-68
2023/05/10 10:45:24;;;;;;;;;1.00;1.00;;;;;;;;5051536;28;10617;-68
2023/05/10 10:47:53;;;;;;;;;1.25;1.00;;;;;;;;5051258;28;10419;-68
2023/05/10 10:50:19;;;;;;;;;2.00;2.00;;;;;;;;5051265;28;10411;-68
2023/05/10 10:52:44;;;;;;;;;2.00;1.00;;;;;;;;5050922;28;10538;-68
2023/05/10 10:55:11;;;;;;;;;2.00;1.00;;;;;;;;5051369;28;9590;-68
2023/05/10 10:57:46;;;;;;;;;1.00;1.00;;;;;;;;5051431;28;8825;-68
2023/05/10 11:00:21;;;;;;;;;2.00;0.00;;;;;;;;5051478;28;10332;-69
2023/05/10 11:02:53;;;;;;;;;0.75;0.75;;;;;;;;5051237;28;11171;-68
2023/05/10 11:05:37;;;;;;;;;2.00;1.00;;;;;;;;5051329;28;10264;-68
2023/05/10 11:08:10;;;;;;;;;0.00;0.00;;;;;;;;5051304;28;10548;-68
2023/05/10 11:10:36;;;;;;;;;0.00;0.00;;;;;;;;5051323;28;10310;-68
2023/05/10 11:13:01;;;;;;;;;1.50;1.00;;;;;;;;5032608;28;10212;-68
2023/05/10 11:15:30;;;;;;;;;0.00;0.00;;;;;;;;5051289;28;8793;-68
2023/05/10 11:17:56;;;;;;;;;0.75;0.75;;;;;;;;5050800;28;8830;-67
2023/05/10 11:20:24;;;;;;;;;0.00;0.00;;;;;;;;5050845;28;10132;-67
2023/05/10 11:22:53;;;;;;;;;3.00;0.00;;;;;;;;5050816;28;8966;-68
2023/05/10 11:25:19;;;;;;;;;1.75;1.00;;;;;;;;5050875;28;10190;-67
2023/05/10 11:27:44;;;;;;;;;1.00;1.00;;;;;;;;5050519;28;10212;-68
2023/05/10 11:30:11;;;;;;;;;2.00;1.00;;;;;;;;5050741;28;8794;-69
2023/05/10 11:32:39;;;;;;;;;8.00;6.00;;;;;;;;5050967;28;8810;-68
2023/05/10 11:35:09;;;;;;;;;3.00;2.00;;;;;;;;5050576;28;10479;-68
2023/05/10 11:37:34;;;;;;;;;2.00;2.00;;;;;;;;5032552;28;10465;-68
2023/05/10 11:40:00;;;;;;;;;2.50;2.00;;;;;;;;5050646;28;10413;-69
2023/05/10 11:42:27;;;;;;;;;1.50;0.00;;;;;;;;5032479;28;8798;-70
2023/05/10 11:44:52;;;;;;;;;1.75;0.50;;;;;;;;5050546;28;8813;-68
2023/05/10 11:47:17;;;;;;;;;0.25;0.00;;;;;;;;5050351;28;10112;-68
2023/05/10 11:49:46;;;;;;;;;0.75;0.75;;;;;;;;5032411;28;8825;-67
2023/05/10 11:52:11;;;;;;;;;1.00;0.50;;;;;;;;5050459;28;8907;-69
2023/05/10 11:54:37;;;;;;;;;0.00;0.00;;;;;;;;5050410;28;10083;-67
2023/05/10 11:57:03;;;;;;;;;1.00;1.00;;;;;;;;5050099;28;8826;-68
2023/05/10 11:59:28;;;;;;;;;0.00;0.00;;;;;;;;5032265;28;8814;-68
2023/05/10 12:01:53;;;;;;;;;1.00;1.00;;;;;;;;5050052;28;8826;-69
2023/05/10 12:04:19;;;;;;;;;2.00;1.00;;;;;;;;5049674;28;8814;-69
2023/05/10 12:06:46;;;;;;;;;2.25;1.00;;;;;;;;5050081;28;8818;-68
2023/05/10 12:09:11;;;;;;;;;1.00;1.00;;;;;;;;5050016;28;8883;-68
2023/05/10 12:11:37;;;;;;;;;3.00;1.00;;;;;;;;5049718;28;10221;-68
2023/05/10 12:14:04;;;;;;;;;1.00;1.00;;;;;;;;5050207;28;8813;-68
2023/05/10 12:16:30;;;;;;;;;2.00;1.00;;;;;;;;5049723;28;10097;-68
2023/05/10 12:18:56;;;;;;;;;0.00;0.00;;;;;;;;5049656;28;9954;-68
2023/05/10 12:21:22;;;;;;;;;0.00;0.00;;;;;;;;5049590;28;9008;-68
2023/05/10 12:23:51;;;;;;;;;0.00;0.00;;;;;;;;5049883;28;9791;-70
2023/05/10 12:26:16;;;;;;;;;0.00;0.00;;;;;;;;5050023;28;8812;-68
2023/05/10 12:28:42;;;;;;;;;0.00;0.00;;;;;;;;5031714;28;10085;-68
2023/05/10 12:33:45;;;;;;;;;0.00;0.00;;;;;;;;5028855;28;9623;-68
2023/05/10 12:36:10;;;;;;;;;0.50;0.00;;;;;;;;5030739;28;9969;-68
2023/05/10 12:38:38;;;;;;;;;0.00;0.00;;;;;;;;5030137;28;10885;-67
2023/05/10 12:41:07;;;;;;;;;0.00;0.00;;;;;;;;5030538;28;8836;-68
2023/05/10 12:43:33;;;;;;;;;2.00;0.25;;;;;;;;5030977;28;10130;-68
2023/05/10 12:46:03;;;;;;;;;0.00;0.00;;;;;;;;5031001;28;9966;-67
2023/05/10 12:48:30;;;;;;;;;1.00;0.00;;;;;;;;5027092;28;9996;-66
2023/05/10 12:50:56;;;;;;;;;0.00;0.00;;;;;;;;5030047;28;10762;-67
2023/05/10 12:53:21;;;;;;;;;0.00;0.00;;;;;;;;5012336;28;10086;-67
2023/05/10 12:55:46;;;;;;;;;0.00;0.00;;;;;;;;5030227;28;9609;-66
2023/05/10 12:58:12;;;;;;;;;0.50;0.00;;;;;;;;5029593;28;8863;-66
2023/05/10 13:00:37;;;;;;;;;0.00;0.00;;;;;;;;5030102;28;8802;-66
2023/05/10 13:03:03;;;;;;;;;1.00;0.00;;;;;;;;5011889;28;8883;-67
2023/05/10 13:05:29;;;;;;;;;0.00;0.00;;;;;;;;5030258;28;8793;-66
2023/05/10 13:07:54;;;;;;;;;0.00;0.00;;;;;;;;5030154;28;9911;-66
2023/05/10 13:10:20;;;;;;;;;0.00;0.00;;;;;;;;5024716;28;8809;-67
2023/05/10 13:12:45;;;;;;;;;1.00;0.00;;;;;;;;5020023;28;8839;-66
2023/05/10 13:15:10;;;;;;;;;0.00;0.00;;;;;;;;5017811;28;8823;-67
2023/05/10 13:17:36;;;;;;;;;1.00;0.00;;;;;;;;5021747;28;8832;-66
2023/05/10 13:20:03;;;;;;;;;0.00;0.00;;;;;;;;5019508;28;8816;-67
2023/05/10 13:22:30;;;;;;;;;0.00;0.00;;;;;;;;5017882;28;9888;-67
2023/05/10 13:24:55;;;;;;;;;0.00;0.00;;;;;;;;5019679;28;9869;-67
2023/05/10 13:27:20;;;;;;;;;0.00;0.00;;;;;;;;5019310;28;9849;-67
2023/05/10 13:29:46;;;;;;;;;0.00;0.00;;;;;;;;5013168;28;8808;-69
2023/05/10 13:32:11;;;;;;;;;1.25;0.00;;;;;;;;5010251;28;8843;-67
2023/05/10 13:34:36;;;;;;;;;0.00;0.00;;;;;;;;5010297;28;8820;-68
2023/05/10 13:37:02;;;;;;;;;0.00;0.00;;;;;;;;5010342;28;8819;-68
2023/05/10 13:39:27;;;;;;;;;0.00;0.00;;;;;;;;5010517;28;8816;-68
2023/05/10 13:41:52;;;;;;;;;1.00;0.00;;;;;;;;5010409;28;8822;-67
2023/05/10 13:44:18;;;;;;;;;0.75;0.00;;;;;;;;5010495;28;8800;-68
2023/05/10 13:46:43;;;;;;;;;0.00;0.00;;;;;;;;5010985;28;9024;-67
2023/05/10 13:49:09;;;;;;;;;0.50;0.00;;;;;;;;5022441;28;8815;-66
2023/05/10 13:51:35;;;;;;;;;0.00;0.00;;;;;;;;5031646;28;8812;-68
2023/05/10 13:54:00;;;;;;;;;0.00;0.00;;;;;;;;5032480;28;8817;-68
2023/05/10 13:56:26;;;;;;;;;0.00;0.00;;;;;;;;5030898;28;11508;-68
2023/05/10 13:58:52;;;;;;;;;0.00;0.00;;;;;;;;5032422;28;8832;-68
2023/05/10 14:01:17;;;;;;;;;0.00;0.00;;;;;;;;5032346;28;8801;-68
2023/05/10 14:03:42;;;;;;;;;0.00;0.00;;;;;;;;5031107;28;9531;-67
2023/05/10 14:06:08;;;;;;;;;0.00;0.00;;;;;;;;5031815;28;8829;-67
2023/05/10 14:08:34;;;;;;;;;0.00;0.00;;;;;;;;5028410;28;8845;-67
2023/05/10 14:10:59;;;;;;;;;0.00;0.00;;;;;;;;5027208;28;8825;-67
2023/05/10 14:13:24;;;;;;;;;0.00;0.00;;;;;;;;5022465;28;10093;-68
2023/05/10 14:15:50;;;;;;;;;0.00;0.00;;;;;;;;5021275;28;8813;-68
2023/05/10 14:18:15;;;;;;;;;0.00;0.00;;;;;;;;5025676;28;8879;-68
2023/05/10 14:20:40;;;;;;;;;0.00;0.00;;;;;;;;5021387;28;8795;-68
2023/05/10 14:23:06;;;;;;;;;0.00;0.00;;;;;;;;5016023;28;8796;-68
2023/05/10 14:25:31;;;;;;;;;0.00;0.00;;;;;;;;5013592;28;8827;-68
2023/05/10 14:27:56;;;;;;;;;0.50;0.00;;;;;;;;5020791;28;8809;-68
2023/05/10 14:30:22;;;;;;;;;0.00;0.00;;;;;;;;5022718;28;8825;-68
2023/05/10 14:32:47;;;;;;;;;0.00;0.00;;;;;;;;5017469;28;8975;-68
2023/05/10 14:35:12;;;;;;;;;0.25;0.00;;;;;;;;5013338;28;8981;-66
2023/05/10 14:37:38;;;;;;;;;1.00;0.00;;;;;;;;5013500;28;8823;-66
2023/05/10 14:40:04;;;;;;;;;1.00;0.00;;;;;;;;5013572;28;8836;-69
2023/05/10 14:42:29;;;;;;;;;0.00;0.00;;;;;;;;5013395;28;8811;-67
2023/05/10 14:44:55;;;;;;;;;0.00;0.00;;;;;;;;5013231;28;11504;-67
2023/05/10 14:47:20;;;;;;;;;0.00;0.00;;;;;;;;5018509;28;8815;-67
2023/05/10 14:49:45;;;;;;;;;0.00;0.00;;;;;;;;5032794;28;8815;-65
2023/05/10 14:52:11;;;;;;;;;0.00;0.00;;;;;;;;5033242;28;8903;-65
2023/05/10 14:54:37;;;;;;;;;0.00;0.00;;;;;;;;5031691;28;8807;-66
2023/05/10 14:57:02;;;;;;;;;0.00;0.00;;;;;;;;5032926;28;10566;-66
2023/05/10 14:59:28;;;;;;;;;0.00;0.00;;;;;;;;5032637;28;8866;-66
2023/05/10 15:01:53;;;;;;;;;0.00;0.00;;;;;;;;5013091;28;8854;-64
2023/05/10 15:04:18;;;;;;;;;0.00;0.00;;;;;;;;5012906;28;8816;-64
2023/05/10 15:06:44;;;;;;;;;1.00;0.00;;;;;;;;5012494;28;8820;-65
2023/05/10 15:09:09;;;;;;;;;0.00;0.00;;;;;;;;5019522;28;8919;-64
2023/05/10 15:11:34;;;;;;;;;0.00;0.00;;;;;;;;5033029;28;8839;-66
2023/05/10 15:13:59;;;;;;;;;0.00;0.00;;;;;;;;5032785;28;8793;-68
2023/05/10 15:16:25;;;;;;;;;1.00;0.00;;;;;;;;5027261;28;8901;-66
2023/05/10 15:18:50;;;;;;;;;0.00;0.00;;;;;;;;5032050;28;8836;-69
2023/05/10 15:21:15;;;;;;;;;0.00;0.00;;;;;;;;5032588;28;8807;-68
2023/05/10 15:23:41;;;;;;;;;0.25;0.00;;;;;;;;5032625;28;8784;-65
2023/05/10 15:26:06;;;;;;;;;0.00;0.00;;;;;;;;5030318;28;8973;-66
2023/05/10 15:28:31;;;;;;;;;0.00;0.00;;;;;;;;5032370;28;8825;-66
2023/05/10 15:30:56;;;;;;;;;1.00;0.00;;;;;;;;5032278;28;8821;-67
2023/05/10 15:33:22;;;;;;;;;0.00;0.00;;;;;;;;5032066;28;8899;-66
2023/05/10 15:35:47;;;;;;;;;0.00;0.00;;;;;;;;5031928;28;8786;-66
2023/05/10 15:38:13;;;;;;;;;0.00;0.00;;;;;;;;5030212;28;9618;-68
2023/05/10 15:40:38;;;;;;;;;0.00;0.00;;;;;;;;5032186;28;8824;-67
2023/05/10 15:43:05;;;;;;;;;0.00;0.00;;;;;;;;5032162;28;8813;-68
2023/05/10 15:45:30;;;;;;;;;0.00;0.00;;;;;;;;5031922;28;8843;-70
2023/05/10 15:47:55;;;;;;;;;0.00;0.00;;;;;;;;5027965;28;10817;-71
2023/05/10 15:50:21;;;;;;;;;0.00;0.00;;;;;;;;5031983;28;8829;-70
2023/05/10 15:52:46;;;;;;;;;1.75;1.00;;;;;;;;5031887;28;8813;-69
2023/05/10 15:55:12;;;;;;;;;1.00;1.00;;;;;;;;5031813;28;8793;-68
2023/05/10 15:57:41;;;;;;;;;0.00;0.00;;;;;;;;5009309;28;8843;-66
2023/05/10 16:00:08;;;;;;;;;0.00;0.00;;;;;;;;5021045;28;9620;-67
2023/05/10 16:02:34;;;;;;;;;0.00;0.00;;;;;;;;5019982;28;10844;-68
2023/05/10 16:04:59;;;;;;;;;0.00;0.00;;;;;;;;5019868;28;10701;-68
2023/05/10 16:07:24;;;;;;;;;0.00;0.00;;;;;;;;5004812;28;9579;-68
2023/05/10 16:09:51;;;;;;;;;0.50;0.00;;;;;;;;5018638;28;8842;-68
2023/05/10 16:12:16;;;;;;;;;0.00;0.00;;;;;;;;5010808;28;8815;-68
2023/05/10 16:14:41;;;;;;;;;0.00;0.00;;;;;;;;5011472;28;10747;-68
2023/05/10 16:17:06;;;;;;;;;0.00;0.00;;;;;;;;5020413;28;8878;-69
2023/05/10 16:19:32;;;;;;;;;1.00;0.00;;;;;;;;5032070;28;8807;-71
2023/05/10 16:21:57;;;;;;;;;0.00;0.00;;;;;;;;5022603;28;8973;-72
2023/05/10 16:24:22;;;;;;;;;0.00;0.00;;;;;;;;5019122;28;8815;-68
2023/05/10 16:26:48;;;;;;;;;0.50;0.00;;;;;;;;5022165;28;8813;-70
2023/05/10 16:29:13;;;;;;;;;0.00;0.00;;;;;;;;5019854;28;8829;-70
2023/05/10 16:31:38;;;;;;;;;0.00;0.00;;;;;;;;5020458;28;9566;-69
2023/05/10 16:34:03;;;;;;;;;0.00;0.00;;;;;;;;5019305;28;8825;-70
2023/05/10 16:36:30;;;;;;;;;0.00;0.00;;;;;;;;5017972;28;8824;-70
2023/05/10 16:38:55;;;;;;;;;0.50;0.00;;;;;;;;5020956;28;8824;-69
2023/05/10 16:41:20;;;;;;;;;0.00;0.00;;;;;;;;5025097;28;10836;-68
2023/05/10 16:43:46;;;;;;;;;11.50;7.00;;;;;;;;5026527;28;8834;-73
2023/05/10 16:46:11;;;;;;;;;4.50;3.00;;;;;;;;5018588;28;9556;-74
2023/05/10 16:48:36;;;;;;;;;1.00;1.00;;;;;;;;5016691;28;8853;-69
2023/05/10 16:51:03;;;;;;;;;0.00;0.00;;;;;;;;5008952;28;9546;-69
2023/05/10 16:53:29;;;;;;;;;0.00;0.00;;;;;;;;5008898;28;10179;-68
2023/05/10 16:55:55;;;;;;;;;0.00;0.00;;;;;;;;5009157;28;10862;-70
2023/05/10 16:58:20;;;;;;;;;0.00;0.00;;;;;;;;5026103;28;10713;-73
2023/05/10 17:00:45;;;;;;;;;0.25;0.25;;;;;;;;5018989;28;8832;-72
2023/05/10 17:03:11;;;;;;;;;35.00;29.75;;;;;;;;4999420;28;9620;-70
2023/05/10 17:05:36;;;;;;;;;0.00;0.00;;;;;;;;5019403;28;8807;-70
2023/05/10 17:08:01;;;;;;;;;0.00;0.00;;;;;;;;5007613;28;8824;-70
2023/05/10 17:10:26;;;;;;;;;0.00;0.00;;;;;;;;5018226;28;8800;-70
2023/05/10 17:12:52;;;;;;;;;0.00;0.00;;;;;;;;5018213;28;8846;-69
2023/05/10 17:15:17;;;;;;;;;0.00;0.00;;;;;;;;5019084;28;8847;-68
2023/05/10 17:17:43;;;;;;;;;0.00;0.00;;;;;;;;5022834;28;8850;-69
2023/05/10 17:20:08;;;;;;;;;0.00;0.00;;;;;;;;5012595;28;9634;-71
2023/05/10 17:22:34;;;;;;;;;1.00;0.00;;;;;;;;5029335;28;8832;-70
2023/05/10 17:24:59;;;;;;;;;0.00;0.00;;;;;;;;5029202;28;8821;-74
2023/05/10 17:27:26;;;;;;;;;0.00;0.00;;;;;;;;5019991;28;8828;-72
2023/05/10 17:29:54;;;;;;;;;0.00;0.00;;;;;;;;5028987;28;8801;-70
2023/05/10 17:32:19;;;;;;;;;0.00;0.00;;;;;;;;5028198;28;10755;-70
2023/05/10 17:34:45;;;;;;;;;0.00;0.00;;;;;;;;5011867;28;11688;-70
2023/05/10 17:37:10;;;;;;;;;1.00;0.00;;;;;;;;5027332;28;8849;-70
2023/05/10 17:39:36;;;;;;;;;0.50;0.00;;;;;;;;5012016;28;8813;-68
2023/05/10 17:42:01;;;;;;;;;0.00;0.00;;;;;;;;5029909;28;8785;-69
2023/05/10 17:44:26;;;;;;;;;0.00;0.00;;;;;;;;5029600;28;8817;-69
2023/05/10 17:46:52;;;;;;;;;0.00;0.00;;;;;;;;5026996;28;8932;-69
2023/05/10 17:49:17;;;;;;;;;0.00;0.00;;;;;;;;5029003;28;8965;-68
2023/05/10 17:51:42;;;;;;;;;0.00;0.00;;;;;;;;5029168;28;8821;-68
2023/05/10 17:54:08;;;;;;;;;0.00;0.00;;;;;;;;5029419;28;8809;-66
2023/05/10 17:56:33;;;;;;;;;0.00;0.00;;;;;;;;5027039;28;8852;-74
2023/05/10 17:58:58;;;;;;;;;0.00;0.00;;;;;;;;5027219;28;8828;-73
2023/05/10 18:01:24;;;;;;;;;0.00;0.00;;;;;;;;5011241;28;8862;-73
2023/05/10 18:03:50;;;;;;;;;0.00;0.00;;;;;;;;5011235;28;8900;-73
2023/05/10 18:06:16;;;;;;;;;0.00;0.00;;;;;;;;5029455;28;8821;-70
2023/05/10 18:08:41;;;;;;;;;0.00;0.00;;;;;;;;5026481;28;10970;-72
2023/05/10 18:11:06;;;;;;;;;0.00;0.00;;;;;;;;5029469;28;8817;-72
2023/05/10 18:13:31;;;;;;;;;0.50;0.00;;;;;;;;5011342;28;8832;-72
2023/05/10 18:15:57;;;;;;;;;1.00;0.00;;;;;;;;5011503;28;8836;-75
2023/05/10 18:18:22;;;;;;;;;2.50;1.00;;;;;;;;5028096;28;8947;-75
2023/05/10 18:20:49;;;;;;;;;0.75;0.75;;;;;;;;5028791;28;9621;-77
2023/05/10 18:23:15;;;;;;;;;2.00;1.00;;;;;;;;5029135;28;9655;-73
2023/05/10 18:25:40;;;;;;;;;0.00;0.00;;;;;;;;5029159;28;11045;-74
2023/05/10 18:28:07;;;;;;;;;0.00;0.00;;;;;;;;5010876;28;8821;-73
2023/05/10 18:30:32;;;;;;;;;43.00;38.75;;;;;;;;5010263;28;8825;-72
2023/05/10 18:32:57;;;;;;;;;14.75;14.25;;;;;;;;5028706;28;11597;-72
2023/05/10 18:35:22;;;;;;;;;57.25;43.50;;;;;;;;5030434;28;8839;-71
2023/05/10 18:37:48;;;;;;;;;11.25;9.75;;;;;;;;5032407;28;8891;-71
2023/05/10 18:40:13;;;;;;;;;4.00;3.50;;;;;;;;5030142;28;8806;-72
2023/05/10 18:42:39;;;;;;;;;0.50;0.00;;;;;;;;5014377;28;8829;-81
2023/05/10 18:45:05;;;;;;;;;1.00;0.00;;;;;;;;5032267;28;8821;-74
2023/05/10 18:47:30;;;;;;;;;0.75;0.75;;;;;;;;5032285;28;8813;-75
2023/05/10 18:49:56;;;;;;;;;0.00;0.00;;;;;;;;5030096;28;10963;-77
2023/05/10 18:52:21;;;;;;;;;0.00;0.00;;;;;;;;5014665;28;8891;-74
2023/05/10 18:54:47;;;;;;;;;0.25;0.25;;;;;;;;5032019;28;8947;-75
2023/05/10 18:57:13;;;;;;;;;0.00;0.00;;;;;;;;5032419;28;8848;-73
2023/05/10 18:59:38;;;;;;;;;0.00;0.00;;;;;;;;5030061;28;10891;-72
2023/05/10 19:02:03;;;;;;;;;0.50;0.50;;;;;;;;5032743;28;8837;-74
2023/05/10 19:04:29;;;;;;;;;0.00;0.00;;;;;;;;5031802;28;8805;-76
2023/05/10 19:06:54;;;;;;;;;2.00;2.00;;;;;;;;5014286;28;9528;-75
2023/05/10 19:09:20;;;;;;;;;3.00;2.25;;;;;;;;5013441;28;8885;-74
2023/05/10 19:11:45;;;;;;;;;2.25;2.00;;;;;;;;5014821;28;8818;-73
2023/05/10 19:14:10;;;;;;;;;1.00;1.00;;;;;;;;5032398;28;8880;-72
2023/05/10 19:16:35;;;;;;;;;2.25;2.25;;;;;;;;5014160;28;8815;-75
2023/05/10 19:19:01;;;;;;;;;1.00;1.00;;;;;;;;5029370;28;8816;-77
2023/05/10 19:21:26;;;;;;;;;7.00;6.25;;;;;;;;5032001;28;8824;-77
2023/05/10 19:23:52;;;;;;;;;1.50;1.00;;;;;;;;5014022;28;8821;-80
2023/05/10 19:26:17;;;;;;;;;5.25;4.75;;;;;;;;5031801;28;8801;-71
2023/05/10 19:28:43;;;;;;;;;2.00;2.00;;;;;;;;5005686;28;8854;-70
2023/05/10 19:31:08;;;;;;;;;2.00;2.00;;;;;;;;5004848;28;8808;-69
2023/05/10 19:33:34;;;;;;;;;3.75;3.75;;;;;;;;5003923;28;8868;-68
2023/05/10 19:35:59;;;;;;;;;2.00;2.00;;;;;;;;5020267;28;8846;-73
2023/05/10 19:38:24;;;;;;;;;2.00;2.00;;;;;;;;5019943;28;8841;-75
2023/05/10 19:40:56;;;;;;;;;3.00;2.00;;;;;;;;5023857;28;9861;-73
2023/05/10 19:43:22;;;;;;;;;5.25;5.25;;;;;;;;5029174;28;8805;-75
2023/05/10 19:45:47;;;;;;;;;8.00;6.50;;;;;;;;5019757;28;11476;-74
2023/05/10 19:48:12;;;;;;;;;1.50;1.50;;;;;;;;5029164;28;8835;-74
2023/05/10 19:50:37;;;;;;;;;1.00;1.00;;;;;;;;5029604;28;8804;-73
2023/05/10 19:53:03;;;;;;;;;1.75;1.75;;;;;;;;5018001;28;8833;-72
2023/05/10 19:55:29;;;;;;;;;2.00;2.00;;;;;;;;5031521;28;8874;-71
2023/05/10 19:57:55;;;;;;;;;2.50;2.00;;;;;;;;5031010;28;8851;-70
2023/05/10 20:00:20;;;;;;;;;2.00;2.00;;;;;;;;5030999;28;11996;-71
2023/05/10 20:02:45;;;;;;;;;8.25;6.75;;;;;;;;5031067;28;8901;-75
2023/05/10 20:05:11;;;;;;;;;3.00;3.00;;;;;;;;5031186;28;8830;-74
2023/05/10 20:07:36;;;;;;;;;2.00;2.00;;;;;;;;5031235;28;8809;-74
2023/05/10 20:10:01;;;;;;;;;2.50;1.50;;;;;;;;5031355;28;8979;-74
2023/05/10 20:12:27;;;;;;;;;1.25;1.25;;;;;;;;5031312;28;8804;-74